sensor_id;sensor_type;location;lat;lon;timestamp;P1;durP1;ratioP1;P2;durP2;ratioP2
17424;SDS011;8830;50.978;5.058;2023-02-26T00:00:32;8.20;;;3.37;;
17424;SDS011;8830;50.978;5.058;2023-02-26T00:03:01;6.03;;;3.10;;
17424;SDS011;8830;50.978;5.058;2023-02-26T00:05:32;10.77;;;3.90;;
17424;SDS011;8830;50.978;5.058;2023-02-26T00:08:02;9.20;;;3.43;;
17424;SDS011;8830;50.978;5.058;2023-02-26T00:10:34;10.93;;;3.57;;
17424;SDS011;8830;50.978;5.058;2023-02-26T00:13:01;5.87;;;3.83;;
17424;SDS011;8830;50.978;5.058;2023-02-26T00:15:29;7.63;;;3.40;;
17424;SDS011;8830;50.978;5.058;2023-02-26T00:17:59;6.07;;;3.07;;
17424;SDS011;8830;50.978;5.058;2023-02-26T00:20:37;5.23;;;3.40;;
17424;SDS011;8830;50.978;5.058;2023-02-26T00:23:08;8.27;;;3.50;;
17424;SDS011;8830;50.978;5.058;2023-02-26T00:25:41;10.33;;;3.23;;
17424;SDS011;8830;50.978;5.058;2023-02-26T00:28:12;10.70;;;3.53;;
17424;SDS011;8830;50.978;5.058;2023-02-26T00:31:01;10.03;;;3.37;;
17424;SDS011;8830;50.978;5.058;2023-02-26T00:33:48;12.33;;;3.67;;
17424;SDS011;8830;50.978;5.058;2023-02-26T00:36:18;9.87;;;3.30;;
17424;SDS011;8830;50.978;5.058;2023-02-26T00:38:58;8.17;;;3.60;;
17424;SDS011;8830;50.978;5.058;2023-02-26T00:41:35;5.77;;;2.97;;
17424;SDS011;8830;50.978;5.058;2023-02-26T00:44:03;10.33;;;3.50;;
17424;SDS011;8830;50.978;5.058;2023-02-26T00:46:35;4.93;;;2.87;;
17424;SDS011;8830;50.978;5.058;2023-02-26T00:49:12;9.30;;;3.77;;
17424;SDS011;8830;50.978;5.058;2023-02-26T00:51:52;10.90;;;3.60;;
17424;SDS011;8830;50.978;5.058;2023-02-26T00:54:31;8.10;;;3.90;;
17424;SDS011;8830;50.978;5.058;2023-02-26T00:57:07;7.80;;;2.90;;
17424;SDS011;8830;50.978;5.058;2023-02-26T00:59:55;5.90;;;2.50;;
17424;SDS011;8830;50.978;5.058;2023-02-26T01:05:01;3.23;;;2.63;;
17424;SDS011;8830;50.978;5.058;2023-02-26T01:07:32;5.53;;;2.53;;
17424;SDS011;8830;50.978;5.058;2023-02-26T01:10:09;6.50;;;2.83;;
17424;SDS011;8830;50.978;5.058;2023-02-26T01:12:44;14.40;;;3.23;;
17424;SDS011;8830;50.978;5.058;2023-02-26T01:17:50;9.07;;;2.50;;
17424;SDS011;8830;50.978;5.058;2023-02-26T01:20:22;8.40;;;2.83;;
17424;SDS011;8830;50.978;5.058;2023-02-26T01:22:53;8.03;;;2.60;;
17424;SDS011;8830;50.978;5.058;2023-02-26T01:25:42;4.50;;;2.77;;
17424;SDS011;8830;50.978;5.058;2023-02-26T01:28:14;7.97;;;3.20;;
17424;SDS011;8830;50.978;5.058;2023-02-26T01:30:49;5.40;;;2.53;;
17424;SDS011;8830;50.978;5.058;2023-02-26T01:33:26;5.73;;;2.77;;
17424;SDS011;8830;50.978;5.058;2023-02-26T01:36:17;7.00;;;2.87;;
17424;SDS011;8830;50.978;5.058;2023-02-26T01:41:48;7.00;;;2.60;;
17424;SDS011;8830;50.978;5.058;2023-02-26T01:44:41;5.70;;;2.63;;
17424;SDS011;8830;50.978;5.058;2023-02-26T01:47:21;10.83;;;2.77;;
17424;SDS011;8830;50.978;5.058;2023-02-26T01:50:05;4.40;;;2.43;;
17424;SDS011;8830;50.978;5.058;2023-02-26T01:58:15;10.57;;;3.00;;
17424;SDS011;8830;50.978;5.058;2023-02-26T02:00:57;8.30;;;2.67;;
17424;SDS011;8830;50.978;5.058;2023-02-26T02:03:42;7.17;;;3.23;;
17424;SDS011;8830;50.978;5.058;2023-02-26T02:06:17;4.67;;;2.83;;
17424;SDS011;8830;50.978;5.058;2023-02-26T02:08:49;5.13;;;3.30;;
17424;SDS011;8830;50.978;5.058;2023-02-26T02:11:20;13.97;;;3.13;;
17424;SDS011;8830;50.978;5.058;2023-02-26T02:13:54;8.03;;;3.27;;
17424;SDS011;8830;50.978;5.058;2023-02-26T02:16:52;3.00;;;2.33;;
17424;SDS011;8830;50.978;5.058;2023-02-26T02:19:46;4.73;;;2.40;;
17424;SDS011;8830;50.978;5.058;2023-02-26T02:25:51;10.50;;;2.97;;
17424;SDS011;8830;50.978;5.058;2023-02-26T02:28:27;10.70;;;2.80;;
17424;SDS011;8830;50.978;5.058;2023-02-26T02:31:06;6.03;;;2.43;;
17424;SDS011;8830;50.978;5.058;2023-02-26T02:33:43;2.73;;;2.00;;
17424;SDS011;8830;50.978;5.058;2023-02-26T02:38:44;6.33;;;2.40;;
17424;SDS011;8830;50.978;5.058;2023-02-26T02:41:16;8.03;;;2.67;;
17424;SDS011;8830;50.978;5.058;2023-02-26T02:43:50;11.33;;;2.63;;
17424;SDS011;8830;50.978;5.058;2023-02-26T02:46:19;7.83;;;2.40;;
17424;SDS011;8830;50.978;5.058;2023-02-26T02:48:48;6.57;;;2.47;;
17424;SDS011;8830;50.978;5.058;2023-02-26T02:54:02;3.27;;;2.50;;
17424;SDS011;8830;50.978;5.058;2023-02-26T02:56:33;6.00;;;1.90;;
17424;SDS011;8830;50.978;5.058;2023-02-26T02:59:04;7.07;;;2.43;;
17424;SDS011;8830;50.978;5.058;2023-02-26T03:01:44;5.03;;;2.47;;
17424;SDS011;8830;50.978;5.058;2023-02-26T03:04:22;9.27;;;2.60;;
17424;SDS011;8830;50.978;5.058;2023-02-26T03:06:52;7.37;;;2.43;;
17424;SDS011;8830;50.978;5.058;2023-02-26T03:09:24;4.57;;;2.07;;
17424;SDS011;8830;50.978;5.058;2023-02-26T03:11:52;5.63;;;2.47;;
17424;SDS011;8830;50.978;5.058;2023-02-26T03:14:21;5.27;;;2.00;;
17424;SDS011;8830;50.978;5.058;2023-02-26T03:16:55;6.40;;;2.03;;
17424;SDS011;8830;50.978;5.058;2023-02-26T03:19:28;5.67;;;1.90;;
17424;SDS011;8830;50.978;5.058;2023-02-26T03:22:00;11.07;;;2.87;;
17424;SDS011;8830;50.978;5.058;2023-02-26T03:24:34;5.27;;;2.50;;
17424;SDS011;8830;50.978;5.058;2023-02-26T03:27:19;3.77;;;2.33;;
17424;SDS011;8830;50.978;5.058;2023-02-26T03:29:52;5.83;;;2.40;;
17424;SDS011;8830;50.978;5.058;2023-02-26T03:32:28;5.40;;;2.50;;
17424;SDS011;8830;50.978;5.058;2023-02-26T03:35:04;10.07;;;2.50;;
17424;SDS011;8830;50.978;5.058;2023-02-26T03:37:41;6.90;;;2.50;;
17424;SDS011;8830;50.978;5.058;2023-02-26T03:40:13;7.53;;;3.03;;
17424;SDS011;8830;50.978;5.058;2023-02-26T03:42:48;6.17;;;2.17;;
17424;SDS011;8830;50.978;5.058;2023-02-26T03:45:25;9.53;;;2.53;;
17424;SDS011;8830;50.978;5.058;2023-02-26T03:48:07;8.60;;;2.27;;
17424;SDS011;8830;50.978;5.058;2023-02-26T03:51:10;4.53;;;2.13;;
17424;SDS011;8830;50.978;5.058;2023-02-26T03:53:48;10.50;;;2.67;;
17424;SDS011;8830;50.978;5.058;2023-02-26T03:56:20;5.37;;;1.83;;
17424;SDS011;8830;50.978;5.058;2023-02-26T03:58:53;6.53;;;2.03;;
17424;SDS011;8830;50.978;5.058;2023-02-26T04:01:21;3.33;;;1.77;;
17424;SDS011;8830;50.978;5.058;2023-02-26T04:07:07;7.20;;;2.33;;
17424;SDS011;8830;50.978;5.058;2023-02-26T04:12:49;3.03;;;2.10;;
17424;SDS011;8830;50.978;5.058;2023-02-26T04:15:49;9.90;;;2.63;;
17424;SDS011;8830;50.978;5.058;2023-02-26T04:18:35;3.27;;;1.80;;
17424;SDS011;8830;50.978;5.058;2023-02-26T04:21:15;5.60;;;2.13;;
17424;SDS011;8830;50.978;5.058;2023-02-26T04:23:55;5.90;;;1.90;;
17424;SDS011;8830;50.978;5.058;2023-02-26T04:26:27;5.17;;;1.90;;
17424;SDS011;8830;50.978;5.058;2023-02-26T04:29:14;12.80;;;2.27;;
17424;SDS011;8830;50.978;5.058;2023-02-26T04:31:48;4.63;;;2.00;;
17424;SDS011;8830;50.978;5.058;2023-02-26T04:34:43;2.90;;;1.83;;
17424;SDS011;8830;50.978;5.058;2023-02-26T04:37:34;4.70;;;1.80;;
17424;SDS011;8830;50.978;5.058;2023-02-26T04:40:02;6.87;;;1.77;;
17424;SDS011;8830;50.978;5.058;2023-02-26T04:42:46;6.70;;;2.20;;
17424;SDS011;8830;50.978;5.058;2023-02-26T04:45:16;4.73;;;1.30;;
17424;SDS011;8830;50.978;5.058;2023-02-26T04:50:27;8.60;;;1.90;;
17424;SDS011;8830;50.978;5.058;2023-02-26T04:52:55;5.37;;;1.90;;
17424;SDS011;8830;50.978;5.058;2023-02-26T04:55:28;6.40;;;2.00;;
17424;SDS011;8830;50.978;5.058;2023-02-26T04:58:05;4.83;;;1.90;;
17424;SDS011;8830;50.978;5.058;2023-02-26T05:00:36;10.87;;;1.90;;
17424;SDS011;8830;50.978;5.058;2023-02-26T05:05:35;5.60;;;2.30;;
17424;SDS011;8830;50.978;5.058;2023-02-26T05:08:13;4.37;;;1.70;;
17424;SDS011;8830;50.978;5.058;2023-02-26T05:10:41;7.20;;;2.50;;
17424;SDS011;8830;50.978;5.058;2023-02-26T05:13:15;6.33;;;2.00;;
17424;SDS011;8830;50.978;5.058;2023-02-26T05:15:43;7.10;;;2.27;;
17424;SDS011;8830;50.978;5.058;2023-02-26T05:18:11;7.33;;;2.13;;
17424;SDS011;8830;50.978;5.058;2023-02-26T05:20:41;4.40;;;1.37;;
17424;SDS011;8830;50.978;5.058;2023-02-26T05:23:08;5.60;;;1.80;;
17424;SDS011;8830;50.978;5.058;2023-02-26T05:25:39;4.97;;;1.60;;
17424;SDS011;8830;50.978;5.058;2023-02-26T05:28:10;5.20;;;1.93;;
17424;SDS011;8830;50.978;5.058;2023-02-26T05:30:44;5.07;;;1.50;;
17424;SDS011;8830;50.978;5.058;2023-02-26T05:33:12;3.70;;;1.40;;
17424;SDS011;8830;50.978;5.058;2023-02-26T05:35:53;4.63;;;2.17;;
17424;SDS011;8830;50.978;5.058;2023-02-26T05:38:22;8.13;;;1.83;;
17424;SDS011;8830;50.978;5.058;2023-02-26T05:40:54;4.83;;;1.63;;
17424;SDS011;8830;50.978;5.058;2023-02-26T05:43:25;3.27;;;1.40;;
17424;SDS011;8830;50.978;5.058;2023-02-26T05:45:53;7.23;;;1.57;;
17424;SDS011;8830;50.978;5.058;2023-02-26T05:48:22;2.53;;;1.20;;
17424;SDS011;8830;50.978;5.058;2023-02-26T05:50:50;4.17;;;1.50;;
17424;SDS011;8830;50.978;5.058;2023-02-26T05:53:19;7.93;;;1.63;;
17424;SDS011;8830;50.978;5.058;2023-02-26T05:55:48;1.80;;;1.33;;
17424;SDS011;8830;50.978;5.058;2023-02-26T05:58:17;5.33;;;1.90;;
17424;SDS011;8830;50.978;5.058;2023-02-26T06:00:44;10.30;;;1.93;;
17424;SDS011;8830;50.978;5.058;2023-02-26T06:03:12;7.63;;;1.67;;
17424;SDS011;8830;50.978;5.058;2023-02-26T06:05:41;5.80;;;1.77;;
17424;SDS011;8830;50.978;5.058;2023-02-26T06:10:42;3.77;;;1.50;;
17424;SDS011;8830;50.978;5.058;2023-02-26T06:13:09;5.57;;;1.50;;
17424;SDS011;8830;50.978;5.058;2023-02-26T06:15:40;3.57;;;1.33;;
17424;SDS011;8830;50.978;5.058;2023-02-26T06:18:08;2.50;;;1.43;;
17424;SDS011;8830;50.978;5.058;2023-02-26T06:20:35;4.13;;;1.23;;
17424;SDS011;8830;50.978;5.058;2023-02-26T06:23:04;5.47;;;1.17;;
17424;SDS011;8830;50.978;5.058;2023-02-26T06:25:31;3.17;;;1.30;;
17424;SDS011;8830;50.978;5.058;2023-02-26T06:27:59;8.93;;;1.47;;
17424;SDS011;8830;50.978;5.058;2023-02-26T06:30:26;2.27;;;1.27;;
17424;SDS011;8830;50.978;5.058;2023-02-26T06:32:55;8.60;;;1.57;;
17424;SDS011;8830;50.978;5.058;2023-02-26T06:35:22;2.93;;;1.63;;
17424;SDS011;8830;50.978;5.058;2023-02-26T06:37:50;2.97;;;1.10;;
17424;SDS011;8830;50.978;5.058;2023-02-26T06:40:17;6.17;;;1.93;;
17424;SDS011;8830;50.978;5.058;2023-02-26T06:42:44;3.67;;;2.27;;
17424;SDS011;8830;50.978;5.058;2023-02-26T06:45:11;6.23;;;2.60;;
17424;SDS011;8830;50.978;5.058;2023-02-26T06:47:39;5.37;;;2.10;;
17424;SDS011;8830;50.978;5.058;2023-02-26T06:50:08;6.53;;;1.63;;
17424;SDS011;8830;50.978;5.058;2023-02-26T06:52:36;4.20;;;1.97;;
17424;SDS011;8830;50.978;5.058;2023-02-26T06:55:03;2.63;;;1.57;;
17424;SDS011;8830;50.978;5.058;2023-02-26T06:57:31;4.97;;;2.10;;
17424;SDS011;8830;50.978;5.058;2023-02-26T06:59:58;2.97;;;1.70;;
17424;SDS011;8830;50.978;5.058;2023-02-26T07:02:25;5.07;;;1.60;;
17424;SDS011;8830;50.978;5.058;2023-02-26T07:04:52;4.77;;;1.50;;
17424;SDS011;8830;50.978;5.058;2023-02-26T07:07:21;3.37;;;1.60;;
17424;SDS011;8830;50.978;5.058;2023-02-26T07:09:48;3.37;;;1.87;;
17424;SDS011;8830;50.978;5.058;2023-02-26T07:12:16;3.20;;;2.00;;
17424;SDS011;8830;50.978;5.058;2023-02-26T07:14:43;3.50;;;1.80;;
17424;SDS011;8830;50.978;5.058;2023-02-26T07:17:10;4.40;;;1.67;;
17424;SDS011;8830;50.978;5.058;2023-02-26T07:19:44;4.53;;;1.50;;
17424;SDS011;8830;50.978;5.058;2023-02-26T07:22:11;8.60;;;2.10;;
17424;SDS011;8830;50.978;5.058;2023-02-26T07:24:40;5.33;;;1.93;;
17424;SDS011;8830;50.978;5.058;2023-02-26T07:27:08;4.90;;;1.70;;
17424;SDS011;8830;50.978;5.058;2023-02-26T07:29:35;5.47;;;2.10;;
17424;SDS011;8830;50.978;5.058;2023-02-26T07:32:03;2.53;;;1.27;;
17424;SDS011;8830;50.978;5.058;2023-02-26T07:34:30;3.20;;;1.40;;
17424;SDS011;8830;50.978;5.058;2023-02-26T07:36:58;5.00;;;1.70;;
17424;SDS011;8830;50.978;5.058;2023-02-26T07:39:25;3.07;;;1.80;;
17424;SDS011;8830;50.978;5.058;2023-02-26T07:41:54;8.00;;;1.93;;
17424;SDS011;8830;50.978;5.058;2023-02-26T07:44:21;4.60;;;1.43;;
17424;SDS011;8830;50.978;5.058;2023-02-26T07:46:48;6.47;;;1.77;;
17424;SDS011;8830;50.978;5.058;2023-02-26T07:49:17;4.70;;;2.13;;
17424;SDS011;8830;50.978;5.058;2023-02-26T07:51:44;3.80;;;1.80;;
17424;SDS011;8830;50.978;5.058;2023-02-26T07:54:13;2.20;;;1.10;;
17424;SDS011;8830;50.978;5.058;2023-02-26T07:56:40;6.10;;;1.90;;
17424;SDS011;8830;50.978;5.058;2023-02-26T07:59:11;3.63;;;1.43;;
17424;SDS011;8830;50.978;5.058;2023-02-26T08:01:38;4.67;;;1.73;;
17424;SDS011;8830;50.978;5.058;2023-02-26T08:04:06;3.50;;;1.40;;
17424;SDS011;8830;50.978;5.058;2023-02-26T08:06:33;2.77;;;1.03;;
17424;SDS011;8830;50.978;5.058;2023-02-26T08:09:00;3.50;;;1.37;;
17424;SDS011;8830;50.978;5.058;2023-02-26T08:11:27;3.30;;;1.33;;
17424;SDS011;8830;50.978;5.058;2023-02-26T08:13:54;5.57;;;1.50;;
17424;SDS011;8830;50.978;5.058;2023-02-26T08:16:23;4.07;;;1.50;;
17424;SDS011;8830;50.978;5.058;2023-02-26T08:18:50;2.20;;;1.17;;
17424;SDS011;8830;50.978;5.058;2023-02-26T08:21:20;2.80;;;0.93;;
17424;SDS011;8830;50.978;5.058;2023-02-26T08:23:47;2.50;;;1.03;;
17424;SDS011;8830;50.978;5.058;2023-02-26T08:26:14;2.03;;;1.07;;
17424;SDS011;8830;50.978;5.058;2023-02-26T08:28:41;2.23;;;1.00;;
17424;SDS011;8830;50.978;5.058;2023-02-26T08:31:08;2.13;;;1.07;;
17424;SDS011;8830;50.978;5.058;2023-02-26T08:33:37;5.23;;;1.00;;
17424;SDS011;8830;50.978;5.058;2023-02-26T08:36:04;3.50;;;1.00;;
17424;SDS011;8830;50.978;5.058;2023-02-26T08:38:37;4.93;;;1.00;;
17424;SDS011;8830;50.978;5.058;2023-02-26T08:41:04;2.73;;;1.10;;
17424;SDS011;8830;50.978;5.058;2023-02-26T08:43:32;2.10;;;1.10;;
17424;SDS011;8830;50.978;5.058;2023-02-26T08:45:59;2.87;;;1.03;;
17424;SDS011;8830;50.978;5.058;2023-02-26T08:48:26;4.10;;;0.87;;
17424;SDS011;8830;50.978;5.058;2023-02-26T08:50:55;1.37;;;0.80;;
17424;SDS011;8830;50.978;5.058;2023-02-26T08:53:22;1.40;;;0.80;;
17424;SDS011;8830;50.978;5.058;2023-02-26T08:55:49;2.90;;;1.10;;
17424;SDS011;8830;50.978;5.058;2023-02-26T08:58:17;5.20;;;1.07;;
17424;SDS011;8830;50.978;5.058;2023-02-26T09:00:45;2.60;;;1.00;;
17424;SDS011;8830;50.978;5.058;2023-02-26T09:03:13;3.43;;;0.80;;
17424;SDS011;8830;50.978;5.058;2023-02-26T09:05:40;3.00;;;0.70;;
17424;SDS011;8830;50.978;5.058;2023-02-26T09:08:09;3.50;;;1.03;;
17424;SDS011;8830;50.978;5.058;2023-02-26T09:10:40;3.17;;;0.80;;
17424;SDS011;8830;50.978;5.058;2023-02-26T09:13:07;2.03;;;0.87;;
17424;SDS011;8830;50.978;5.058;2023-02-26T09:15:34;4.23;;;0.93;;
17424;SDS011;8830;50.978;5.058;2023-02-26T09:18:01;2.93;;;1.07;;
17424;SDS011;8830;50.978;5.058;2023-02-26T09:20:28;3.07;;;1.00;;
17424;SDS011;8830;50.978;5.058;2023-02-26T09:22:56;3.00;;;1.10;;
17424;SDS011;8830;50.978;5.058;2023-02-26T09:25:24;4.43;;;0.67;;
17424;SDS011;8830;50.978;5.058;2023-02-26T09:27:51;3.30;;;1.10;;
17424;SDS011;8830;50.978;5.058;2023-02-26T09:30:19;3.03;;;0.70;;
17424;SDS011;8830;50.978;5.058;2023-02-26T09:32:46;7.53;;;1.07;;
17424;SDS011;8830;50.978;5.058;2023-02-26T09:35:13;1.30;;;0.60;;
17424;SDS011;8830;50.978;5.058;2023-02-26T09:37:41;3.83;;;1.03;;
17424;SDS011;8830;50.978;5.058;2023-02-26T09:40:09;1.80;;;0.73;;
17424;SDS011;8830;50.978;5.058;2023-02-26T09:42:52;0.90;;;0.60;;
17424;SDS011;8830;50.978;5.058;2023-02-26T09:45:29;2.60;;;0.80;;
17424;SDS011;8830;50.978;5.058;2023-02-26T09:48:00;5.23;;;0.83;;
17424;SDS011;8830;50.978;5.058;2023-02-26T09:50:32;1.33;;;0.53;;
17424;SDS011;8830;50.978;5.058;2023-02-26T09:53:06;0.80;;;0.60;;
17424;SDS011;8830;50.978;5.058;2023-02-26T09:55:40;2.07;;;0.80;;
17424;SDS011;8830;50.978;5.058;2023-02-26T09:58:13;3.13;;;0.90;;
17424;SDS011;8830;50.978;5.058;2023-02-26T10:00:46;1.37;;;0.77;;
17424;SDS011;8830;50.978;5.058;2023-02-26T10:03:22;1.37;;;0.50;;
17424;SDS011;8830;50.978;5.058;2023-02-26T10:06:00;2.10;;;0.73;;
17424;SDS011;8830;50.978;5.058;2023-02-26T10:08:46;1.80;;;0.50;;
17424;SDS011;8830;50.978;5.058;2023-02-26T10:11:22;2.83;;;0.70;;
17424;SDS011;8830;50.978;5.058;2023-02-26T10:13:57;2.73;;;0.70;;
17424;SDS011;8830;50.978;5.058;2023-02-26T10:16:29;1.23;;;0.40;;
17424;SDS011;8830;50.978;5.058;2023-02-26T10:19:02;2.27;;;0.60;;
17424;SDS011;8830;50.978;5.058;2023-02-26T10:21:34;4.53;;;0.50;;
17424;SDS011;8830;50.978;5.058;2023-02-26T10:24:07;2.00;;;0.50;;
17424;SDS011;8830;50.978;5.058;2023-02-26T10:26:39;1.57;;;0.50;;
17424;SDS011;8830;50.978;5.058;2023-02-26T10:29:13;1.70;;;0.77;;
17424;SDS011;8830;50.978;5.058;2023-02-26T10:31:48;4.00;;;0.60;;
17424;SDS011;8830;50.978;5.058;2023-02-26T10:34:24;1.73;;;0.60;;
17424;SDS011;8830;50.978;5.058;2023-02-26T10:36:57;1.10;;;0.53;;
17424;SDS011;8830;50.978;5.058;2023-02-26T10:39:28;5.43;;;0.67;;
17424;SDS011;8830;50.978;5.058;2023-02-26T10:41:59;2.57;;;0.60;;
17424;SDS011;8830;50.978;5.058;2023-02-26T10:44:33;1.17;;;0.50;;
17424;SDS011;8830;50.978;5.058;2023-02-26T10:47:06;2.47;;;0.60;;
17424;SDS011;8830;50.978;5.058;2023-02-26T10:49:43;2.10;;;1.00;;
17424;SDS011;8830;50.978;5.058;2023-02-26T10:52:17;1.57;;;0.57;;
17424;SDS011;8830;50.978;5.058;2023-02-26T10:54:47;1.37;;;0.70;;
17424;SDS011;8830;50.978;5.058;2023-02-26T10:57:29;2.93;;;0.47;;
17424;SDS011;8830;50.978;5.058;2023-02-26T10:59:59;1.70;;;0.53;;
17424;SDS011;8830;50.978;5.058;2023-02-26T11:02:33;1.50;;;0.60;;
17424;SDS011;8830;50.978;5.058;2023-02-26T11:05:04;2.23;;;0.50;;
17424;SDS011;8830;50.978;5.058;2023-02-26T11:07:38;1.10;;;0.47;;
17424;SDS011;8830;50.978;5.058;2023-02-26T11:10:11;3.10;;;0.63;;
17424;SDS011;8830;50.978;5.058;2023-02-26T11:12:41;1.47;;;0.47;;
17424;SDS011;8830;50.978;5.058;2023-02-26T11:15:13;3.30;;;0.73;;
17424;SDS011;8830;50.978;5.058;2023-02-26T11:17:44;1.03;;;0.40;;
17424;SDS011;8830;50.978;5.058;2023-02-26T11:20:16;0.73;;;0.40;;
17424;SDS011;8830;50.978;5.058;2023-02-26T11:22:51;1.03;;;0.53;;
17424;SDS011;8830;50.978;5.058;2023-02-26T11:25:22;0.57;;;0.37;;
17424;SDS011;8830;50.978;5.058;2023-02-26T11:27:52;2.23;;;0.50;;
17424;SDS011;8830;50.978;5.058;2023-02-26T11:30:26;1.70;;;0.53;;
17424;SDS011;8830;50.978;5.058;2023-02-26T11:32:57;1.40;;;0.47;;
17424;SDS011;8830;50.978;5.058;2023-02-26T11:35:29;1.13;;;0.43;;
17424;SDS011;8830;50.978;5.058;2023-02-26T11:37:57;1.07;;;0.30;;
17424;SDS011;8830;50.978;5.058;2023-02-26T11:40:31;0.33;;;0.30;;
17424;SDS011;8830;50.978;5.058;2023-02-26T11:43:02;1.10;;;0.47;;
17424;SDS011;8830;50.978;5.058;2023-02-26T11:45:35;0.93;;;0.40;;
17424;SDS011;8830;50.978;5.058;2023-02-26T11:48:06;2.23;;;0.60;;
17424;SDS011;8830;50.978;5.058;2023-02-26T11:50:40;2.17;;;0.60;;
17424;SDS011;8830;50.978;5.058;2023-02-26T11:53:15;1.10;;;0.57;;
17424;SDS011;8830;50.978;5.058;2023-02-26T11:55:43;1.50;;;0.40;;
17424;SDS011;8830;50.978;5.058;2023-02-26T11:58:18;3.03;;;0.50;;
17424;SDS011;8830;50.978;5.058;2023-02-26T12:00:48;1.87;;;0.40;;
17424;SDS011;8830;50.978;5.058;2023-02-26T12:03:19;0.47;;;0.40;;
17424;SDS011;8830;50.978;5.058;2023-02-26T12:05:47;3.77;;;0.27;;
17424;SDS011;8830;50.978;5.058;2023-02-26T12:08:18;3.67;;;0.60;;
17424;SDS011;8830;50.978;5.058;2023-02-26T12:10:57;0.73;;;0.40;;
17424;SDS011;8830;50.978;5.058;2023-02-26T12:13:34;1.03;;;0.50;;
17424;SDS011;8830;50.978;5.058;2023-02-26T12:16:14;1.93;;;0.43;;
17424;SDS011;8830;50.978;5.058;2023-02-26T12:18:49;3.43;;;0.50;;
17424;SDS011;8830;50.978;5.058;2023-02-26T12:21:36;1.27;;;0.60;;
17424;SDS011;8830;50.978;5.058;2023-02-26T12:24:35;1.40;;;0.60;;
17424;SDS011;8830;50.978;5.058;2023-02-26T12:27:17;1.20;;;0.67;;
17424;SDS011;8830;50.978;5.058;2023-02-26T12:29:58;1.07;;;0.57;;
17424;SDS011;8830;50.978;5.058;2023-02-26T12:35:37;0.80;;;0.40;;
17424;SDS011;8830;50.978;5.058;2023-02-26T12:38:27;1.90;;;0.60;;
17424;SDS011;8830;50.978;5.058;2023-02-26T12:40:59;6.80;;;0.70;;
17424;SDS011;8830;50.978;5.058;2023-02-26T12:43:37;2.27;;;0.60;;
17424;SDS011;8830;50.978;5.058;2023-02-26T12:46:14;1.27;;;0.50;;
17424;SDS011;8830;50.978;5.058;2023-02-26T12:49:06;2.20;;;0.40;;
17424;SDS011;8830;50.978;5.058;2023-02-26T12:55:01;1.13;;;0.50;;
17424;SDS011;8830;50.978;5.058;2023-02-26T12:57:53;1.10;;;0.60;;
17424;SDS011;8830;50.978;5.058;2023-02-26T13:00:38;1.10;;;0.60;;
17424;SDS011;8830;50.978;5.058;2023-02-26T13:03:32;0.77;;;0.33;;
17424;SDS011;8830;50.978;5.058;2023-02-26T13:09:15;1.23;;;0.47;;
17424;SDS011;8830;50.978;5.058;2023-02-26T13:11:58;0.80;;;0.30;;
17424;SDS011;8830;50.978;5.058;2023-02-26T13:14:37;1.57;;;0.40;;
17424;SDS011;8830;50.978;5.058;2023-02-26T13:17:15;0.20;;;0.20;;
17424;SDS011;8830;50.978;5.058;2023-02-26T13:19:51;0.63;;;0.40;;
17424;SDS011;8830;50.978;5.058;2023-02-26T13:22:23;0.90;;;0.60;;
17424;SDS011;8830;50.978;5.058;2023-02-26T13:25:00;2.13;;;0.60;;
17424;SDS011;8830;50.978;5.058;2023-02-26T13:27:30;0.87;;;0.40;;
17424;SDS011;8830;50.978;5.058;2023-02-26T13:30:13;1.77;;;0.60;;
17424;SDS011;8830;50.978;5.058;2023-02-26T13:32:47;1.47;;;0.50;;
17424;SDS011;8830;50.978;5.058;2023-02-26T13:35:20;1.27;;;0.40;;
17424;SDS011;8830;50.978;5.058;2023-02-26T13:37:52;2.80;;;0.50;;
17424;SDS011;8830;50.978;5.058;2023-02-26T13:40:29;1.33;;;0.50;;
17424;SDS011;8830;50.978;5.058;2023-02-26T13:43:09;1.07;;;0.50;;
17424;SDS011;8830;50.978;5.058;2023-02-26T13:45:47;2.57;;;0.40;;
17424;SDS011;8830;50.978;5.058;2023-02-26T13:48:26;2.17;;;0.50;;
17424;SDS011;8830;50.978;5.058;2023-02-26T13:51:04;0.93;;;0.63;;
17424;SDS011;8830;50.978;5.058;2023-02-26T13:53:56;1.13;;;0.57;;
17424;SDS011;8830;50.978;5.058;2023-02-26T13:56:47;2.60;;;0.40;;
17424;SDS011;8830;50.978;5.058;2023-02-26T13:59:35;1.00;;;0.30;;
17424;SDS011;8830;50.978;5.058;2023-02-26T14:05:34;0.80;;;0.50;;
17424;SDS011;8830;50.978;5.058;2023-02-26T14:08:19;3.80;;;0.60;;
17424;SDS011;8830;50.978;5.058;2023-02-26T14:11:23;0.73;;;0.40;;
17424;SDS011;8830;50.978;5.058;2023-02-26T14:14:12;1.63;;;0.50;;
17424;SDS011;8830;50.978;5.058;2023-02-26T14:16:43;2.00;;;0.53;;
17424;SDS011;8830;50.978;5.058;2023-02-26T14:19:19;1.63;;;0.67;;
17424;SDS011;8830;50.978;5.058;2023-02-26T14:21:49;2.13;;;0.50;;
17424;SDS011;8830;50.978;5.058;2023-02-26T14:24:21;1.07;;;0.50;;
17424;SDS011;8830;50.978;5.058;2023-02-26T14:27:07;5.27;;;0.80;;
17424;SDS011;8830;50.978;5.058;2023-02-26T14:29:56;0.77;;;0.40;;
17424;SDS011;8830;50.978;5.058;2023-02-26T14:32:26;0.67;;;0.50;;
17424;SDS011;8830;50.978;5.058;2023-02-26T14:34:58;3.23;;;0.50;;
17424;SDS011;8830;50.978;5.058;2023-02-26T14:37:30;2.73;;;0.70;;
17424;SDS011;8830;50.978;5.058;2023-02-26T14:40:03;1.40;;;0.50;;
17424;SDS011;8830;50.978;5.058;2023-02-26T14:42:40;0.60;;;0.40;;
17424;SDS011;8830;50.978;5.058;2023-02-26T14:45:17;0.77;;;0.57;;
17424;SDS011;8830;50.978;5.058;2023-02-26T14:47:53;3.93;;;0.50;;
17424;SDS011;8830;50.978;5.058;2023-02-26T14:50:22;1.17;;;0.60;;
17424;SDS011;8830;50.978;5.058;2023-02-26T14:55:56;2.73;;;0.60;;
17424;SDS011;8830;50.978;5.058;2023-02-26T14:58:34;1.10;;;0.70;;
17424;SDS011;8830;50.978;5.058;2023-02-26T15:01:14;1.97;;;0.40;;
17424;SDS011;8830;50.978;5.058;2023-02-26T15:04:03;1.60;;;0.40;;
17424;SDS011;8830;50.978;5.058;2023-02-26T15:06:54;1.10;;;0.60;;
17424;SDS011;8830;50.978;5.058;2023-02-26T15:09:36;1.03;;;0.60;;
17424;SDS011;8830;50.978;5.058;2023-02-26T15:12:15;1.07;;;0.40;;
17424;SDS011;8830;50.978;5.058;2023-02-26T15:14:58;1.33;;;0.60;;
17424;SDS011;8830;50.978;5.058;2023-02-26T15:17:39;1.47;;;0.90;;
17424;SDS011;8830;50.978;5.058;2023-02-26T15:20:21;1.33;;;0.60;;
17424;SDS011;8830;50.978;5.058;2023-02-26T15:23:03;1.43;;;0.50;;
17424;SDS011;8830;50.978;5.058;2023-02-26T15:25:40;0.83;;;0.50;;
17424;SDS011;8830;50.978;5.058;2023-02-26T15:28:10;2.30;;;0.50;;
17424;SDS011;8830;50.978;5.058;2023-02-26T15:30:42;1.40;;;0.50;;
17424;SDS011;8830;50.978;5.058;2023-02-26T15:33:12;2.23;;;0.70;;
17424;SDS011;8830;50.978;5.058;2023-02-26T15:35:41;1.67;;;0.60;;
17424;SDS011;8830;50.978;5.058;2023-02-26T15:38:08;1.40;;;0.40;;
17424;SDS011;8830;50.978;5.058;2023-02-26T15:40:36;2.77;;;0.77;;
17424;SDS011;8830;50.978;5.058;2023-02-26T15:43:04;2.10;;;0.60;;
17424;SDS011;8830;50.978;5.058;2023-02-26T15:45:33;0.60;;;0.60;;
17424;SDS011;8830;50.978;5.058;2023-02-26T15:48:04;1.60;;;0.80;;
17424;SDS011;8830;50.978;5.058;2023-02-26T15:50:35;1.63;;;0.77;;
17424;SDS011;8830;50.978;5.058;2023-02-26T15:53:06;1.47;;;0.67;;
17424;SDS011;8830;50.978;5.058;2023-02-26T15:55:37;0.90;;;0.50;;
17424;SDS011;8830;50.978;5.058;2023-02-26T15:58:10;0.67;;;0.50;;
17424;SDS011;8830;50.978;5.058;2023-02-26T16:00:50;1.73;;;0.63;;
17424;SDS011;8830;50.978;5.058;2023-02-26T16:03:25;0.60;;;0.40;;
17424;SDS011;8830;50.978;5.058;2023-02-26T16:05:53;1.53;;;0.50;;
17424;SDS011;8830;50.978;5.058;2023-02-26T16:08:20;1.70;;;0.60;;
17424;SDS011;8830;50.978;5.058;2023-02-26T16:10:48;2.30;;;0.70;;
17424;SDS011;8830;50.978;5.058;2023-02-26T16:13:20;46.70;;;5.13;;
17424;SDS011;8830;50.978;5.058;2023-02-26T16:15:53;3.77;;;1.00;;
17424;SDS011;8830;50.978;5.058;2023-02-26T16:18:26;3.33;;;0.60;;
17424;SDS011;8830;50.978;5.058;2023-02-26T16:20:54;5.60;;;0.70;;
17424;SDS011;8830;50.978;5.058;2023-02-26T16:23:31;1.63;;;0.50;;
17424;SDS011;8830;50.978;5.058;2023-02-26T16:26:10;0.77;;;0.40;;
17424;SDS011;8830;50.978;5.058;2023-02-26T16:28:43;1.47;;;0.60;;
17424;SDS011;8830;50.978;5.058;2023-02-26T16:31:15;0.77;;;0.67;;